createdAt,value
2022-11-17T00:01:35.919Z,5.20
2022-11-17T00:04:04.139Z,6.50
2022-11-17T00:06:32.255Z,4.50
2022-11-17T00:09:00.318Z,5.20
2022-11-17T00:11:48.759Z,5.60
2022-11-17T00:14:36.781Z,5.30
2022-11-17T00:17:08.109Z,5.80
2022-11-17T00:19:55.004Z,4.40
2022-11-17T00:22:23.831Z,4.70
2022-11-17T00:24:52.292Z,4.30
2022-11-17T00:27:20.455Z,5.60
2022-11-17T00:29:48.647Z,4.30
2022-11-17T00:32:37.097Z,4.20
2022-11-17T00:35:06.376Z,5.10
2022-11-17T00:37:37.331Z,5.30
2022-11-17T00:40:06.232Z,5.50
2022-11-17T00:42:34.383Z,5.40
2022-11-17T00:45:02.542Z,5.10
2022-11-17T00:47:30.565Z,4.90
2022-11-17T00:49:58.693Z,4.40
2022-11-17T00:52:26.852Z,5.00
2022-11-17T00:54:54.901Z,4.80
2022-11-17T00:57:23.449Z,5.20
2022-11-17T00:59:51.617Z,5.50
2022-11-17T01:02:19.663Z,4.50
2022-11-17T01:04:47.700Z,4.80
2022-11-17T01:07:15.813Z,4.30
2022-11-17T01:09:43.892Z,3.90
2022-11-17T01:12:11.964Z,5.10
2022-11-17T01:14:40.042Z,4.20
2022-11-17T01:17:08.077Z,4.60
2022-11-17T01:19:36.202Z,3.90
2022-11-17T01:22:04.433Z,4.00
2022-11-17T01:24:32.462Z,4.60
2022-11-17T01:27:00.680Z,4.50
2022-11-17T01:29:29.305Z,4.10
2022-11-17T01:31:57.537Z,3.70
2022-11-17T01:34:25.668Z,4.20
2022-11-17T01:37:12.628Z,4.00
2022-11-17T01:39:40.647Z,4.20
2022-11-17T01:42:15.006Z,3.60
2022-11-17T01:44:52.035Z,3.60
2022-11-17T01:47:41.152Z,3.60
2022-11-17T01:50:11.905Z,3.50
2022-11-17T01:52:41.274Z,4.50
2022-11-17T01:55:11.443Z,4.90
2022-11-17T01:57:46.400Z,4.30
2022-11-17T02:00:15.515Z,3.90
2022-11-17T02:02:46.070Z,4.20
2022-11-17T02:05:37.986Z,3.80
2022-11-17T02:08:07.843Z,4.00
2022-11-17T02:10:36.751Z,4.90
2022-11-17T02:13:05.722Z,4.10
2022-11-17T02:15:33.984Z,4.20
2022-11-17T02:18:02.925Z,3.60
2022-11-17T02:20:43.014Z,4.20
2022-11-17T02:23:33.251Z,3.80
2022-11-17T02:26:28.892Z,3.10
2022-11-17T02:29:06.343Z,3.80
2022-11-17T02:31:53.874Z,4.10
2022-11-17T02:34:21.877Z,3.80
2022-11-17T02:36:59.063Z,3.00
2022-11-17T02:39:40.473Z,4.10
2022-11-17T02:42:56.116Z,4.30
2022-11-17T02:46:03.128Z,3.60
2022-11-17T02:48:46.674Z,4.90
2022-11-17T02:51:22.393Z,4.30
2022-11-17T02:53:54.031Z,3.90
2022-11-17T02:56:22.746Z,4.50
2022-11-17T02:58:54.482Z,5.10
2022-11-17T03:01:22.513Z,4.80
2022-11-17T03:03:56.725Z,4.10
2022-11-17T03:06:46.698Z,6.60
2022-11-17T03:09:39.375Z,4.90
2022-11-17T03:12:20.323Z,4.30
2022-11-17T03:14:58.191Z,5.10
2022-11-17T03:17:32.842Z,4.50
2022-11-17T03:20:13.248Z,4.10
2022-11-17T03:23:04.524Z,4.00
2022-11-17T03:25:35.195Z,6.60
2022-11-17T03:28:10.754Z,3.70
2022-11-17T03:30:43.167Z,3.70
2022-11-17T03:33:16.128Z,4.20
2022-11-17T03:35:52.864Z,3.60
2022-11-17T03:38:25.061Z,3.70
2022-11-17T03:40:56.903Z,3.00
2022-11-17T03:43:27.336Z,3.50
2022-11-17T03:46:00.959Z,4.20
2022-11-17T03:48:35.259Z,3.80
2022-11-17T03:51:12.833Z,4.00
2022-11-17T03:53:42.282Z,3.30
2022-11-17T03:56:22.883Z,3.00
2022-11-17T03:58:59.905Z,3.80
2022-11-17T04:01:30.729Z,3.00
2022-11-17T04:03:59.165Z,3.30
2022-11-17T04:06:27.198Z,3.50
2022-11-17T04:08:55.328Z,3.40
2022-11-17T04:11:42.851Z,3.70
2022-11-17T04:14:30.018Z,3.30
2022-11-17T04:16:58.051Z,3.60
2022-11-17T04:19:26.110Z,3.60
2022-11-17T04:21:54.112Z,3.30
2022-11-17T04:24:22.201Z,4.20
2022-11-17T04:27:09.252Z,3.50
2022-11-17T04:29:37.290Z,2.80
2022-11-17T04:32:05.385Z,2.80
2022-11-17T04:34:33.466Z,3.60
2022-11-17T04:37:08.045Z,4.30
2022-11-17T04:39:39.003Z,3.30
2022-11-17T04:42:07.091Z,3.60
2022-11-17T04:44:35.199Z,2.80
2022-11-17T04:47:03.975Z,3.80
2022-11-17T04:49:33.380Z,3.20
2022-11-17T04:52:02.078Z,3.20
2022-11-17T04:54:30.546Z,3.40
2022-11-17T04:56:58.584Z,3.90
2022-11-17T04:59:26.841Z,3.70
2022-11-17T05:01:54.923Z,4.30
2022-11-17T05:04:42.280Z,4.10
2022-11-17T05:07:12.356Z,3.60
2022-11-17T05:09:40.498Z,4.10
2022-11-17T05:12:28.500Z,4.10
2022-11-17T05:14:56.641Z,4.80
2022-11-17T05:17:24.813Z,3.60
2022-11-17T05:19:52.917Z,4.00
2022-11-17T05:22:42.343Z,3.50
2022-11-17T05:25:10.454Z,3.50
2022-11-17T05:27:38.595Z,4.70
2022-11-17T05:30:08.514Z,3.10
2022-11-17T05:32:36.632Z,3.50
2022-11-17T05:35:05.240Z,3.00
2022-11-17T05:37:33.279Z,3.00
2022-11-17T05:40:01.385Z,4.20
2022-11-17T05:42:29.541Z,3.80
2022-11-17T05:44:57.785Z,3.90
2022-11-17T05:47:25.862Z,3.10
2022-11-17T05:49:53.911Z,3.40
2022-11-17T05:52:22.038Z,3.40
2022-11-17T05:54:50.066Z,3.70
2022-11-17T05:57:26.265Z,3.20
2022-11-17T06:02:32.768Z,2.90
2022-11-17T06:05:01.390Z,3.30
2022-11-17T06:07:29.583Z,2.80
2022-11-17T06:09:57.766Z,3.40
2022-11-17T06:12:25.875Z,3.50
2022-11-17T06:14:54.096Z,2.90
2022-11-17T06:17:30.219Z,4.10
2022-11-17T06:22:48.124Z,4.00
2022-11-17T06:25:19.437Z,3.60
2022-11-17T06:27:50.614Z,4.00
2022-11-17T06:30:19.110Z,4.30
2022-11-17T06:32:50.132Z,3.20
2022-11-17T06:35:18.473Z,4.50
2022-11-17T06:37:46.670Z,4.00
2022-11-17T06:40:15.175Z,4.40
2022-11-17T06:43:02.329Z,4.10
2022-11-17T06:45:34.736Z,4.30
2022-11-17T06:48:03.302Z,4.80
2022-11-17T06:50:31.681Z,4.50
2022-11-17T06:53:02.176Z,3.80
2022-11-17T06:55:30.823Z,4.50
2022-11-17T06:58:00.975Z,3.80
2022-11-17T07:00:30.802Z,3.80
2022-11-17T07:03:06.494Z,4.60
2022-11-17T07:05:36.397Z,4.40
2022-11-17T07:08:08.323Z,4.60
2022-11-17T07:10:36.916Z,3.70
2022-11-17T07:13:05.193Z,4.10
2022-11-17T07:15:33.333Z,4.50
2022-11-17T07:18:02.281Z,4.40
2022-11-17T07:20:30.623Z,4.10
2022-11-17T07:23:00.448Z,4.50
2022-11-17T07:25:28.503Z,3.70
2022-11-17T07:28:00.586Z,4.00
2022-11-17T07:30:29.281Z,4.20
2022-11-17T07:33:01.134Z,4.40
2022-11-17T07:35:29.761Z,4.40
2022-11-17T07:37:59.500Z,4.10
2022-11-17T07:40:29.184Z,4.40
2022-11-17T07:42:57.327Z,4.40
2022-11-17T07:45:31.413Z,4.20
2022-11-17T07:48:02.867Z,3.40
2022-11-17T07:50:32.266Z,3.60
2022-11-17T07:53:00.705Z,3.80
2022-11-17T07:55:28.839Z,3.40
2022-11-17T07:58:02.079Z,3.00
2022-11-17T08:00:31.922Z,3.40
2022-11-17T08:03:01.911Z,3.50
2022-11-17T08:05:43.453Z,4.20
2022-11-17T08:08:13.697Z,3.90
2022-11-17T08:10:43.480Z,4.00
2022-11-17T08:13:12.926Z,4.70
2022-11-17T08:15:43.899Z,5.30
2022-11-17T08:18:12.260Z,5.30
2022-11-17T08:20:40.432Z,3.70
2022-11-17T08:23:15.801Z,4.30
2022-11-17T08:25:46.097Z,4.00
2022-11-17T08:28:14.485Z,4.60
2022-11-17T08:30:45.735Z,5.20
2022-11-17T08:33:14.331Z,5.40
2022-11-17T08:35:42.547Z,5.00
2022-11-17T08:38:12.544Z,4.40
2022-11-17T08:40:41.265Z,5.80
2022-11-17T08:43:09.591Z,4.90
2022-11-17T08:45:37.784Z,5.30
2022-11-17T08:48:07.601Z,5.50
2022-11-17T08:50:35.680Z,5.20
2022-11-17T08:53:03.890Z,5.00
2022-11-17T08:55:35.632Z,5.20
2022-11-17T08:58:06.417Z,5.00
2022-11-17T09:00:35.017Z,4.80
2022-11-17T09:03:10.923Z,6.10
2022-11-17T09:05:41.976Z,5.20
2022-11-17T09:08:43.262Z,5.80
2022-11-17T09:11:04.910Z,6.20
2022-11-17T09:13:33.938Z,5.90
2022-11-17T09:16:07.960Z,5.50
2022-11-17T09:18:38.585Z,6.40
2022-11-17T09:21:10.232Z,5.60
2022-11-17T09:23:40.325Z,5.10
2022-11-17T09:26:12.334Z,5.20
2022-11-17T09:28:41.566Z,6.40
2022-11-17T09:31:12.998Z,5.80
2022-11-17T09:33:41.988Z,6.00
2022-11-17T09:36:12.544Z,5.70
2022-11-17T09:38:41.411Z,4.80
2022-11-17T09:41:24.338Z,5.40
2022-11-17T09:44:14.167Z,4.90
2022-11-17T09:46:51.366Z,4.70
2022-11-17T09:49:49.149Z,4.90
2022-11-17T09:52:19.262Z,5.90
2022-11-17T09:54:59.943Z,5.40
2022-11-17T09:57:28.144Z,5.60
2022-11-17T10:00:15.071Z,6.00
2022-11-17T10:02:43.602Z,5.50
2022-11-17T10:05:34.865Z,4.70
2022-11-17T10:08:08.480Z,4.80
2022-11-17T10:10:55.593Z,5.60
2022-11-17T10:13:30.894Z,4.80
2022-11-17T10:16:06.484Z,5.00
2022-11-17T10:18:38.577Z,4.60
2022-11-17T10:21:09.417Z,5.30
2022-11-17T10:23:46.179Z,5.40
2022-11-17T10:26:16.212Z,5.90
2022-11-17T10:28:44.531Z,5.90
2022-11-17T10:31:19.204Z,5.30
2022-11-17T10:33:51.051Z,6.60
2022-11-17T10:36:32.914Z,6.80
2022-11-17T10:39:01.406Z,4.40
2022-11-17T10:41:41.069Z,6.30
2022-11-17T10:44:26.185Z,6.80
2022-11-17T10:47:02.644Z,6.30
2022-11-17T10:49:35.212Z,5.70
2022-11-17T10:52:09.365Z,4.90
2022-11-17T10:54:38.494Z,6.10
2022-11-17T10:57:17.645Z,6.90
2022-11-17T10:59:56.885Z,4.90
2022-11-17T11:02:31.822Z,5.90
2022-11-17T11:05:05.975Z,6.20
2022-11-17T11:07:34.196Z,5.60
2022-11-17T11:10:33.537Z,5.50
2022-11-17T11:13:57.469Z,4.80
2022-11-17T11:16:29.155Z,4.90
2022-11-17T11:18:58.093Z,5.40
2022-11-17T11:21:35.377Z,5.20
2022-11-17T11:24:18.170Z,5.10
2022-11-17T11:26:57.072Z,5.20
2022-11-17T11:30:10.156Z,4.80
2022-11-17T11:32:53.621Z,4.70
2022-11-17T11:35:44.149Z,4.70
2022-11-17T11:38:21.108Z,5.50
2022-11-17T11:41:10.937Z,7.40
2022-11-17T11:44:03.942Z,7.30
2022-11-17T11:46:34.817Z,6.40
2022-11-17T11:49:18.752Z,7.10
2022-11-17T11:51:50.458Z,6.40
2022-11-17T11:54:33.069Z,7.40
2022-11-17T11:57:02.389Z,7.20
2022-11-17T11:59:50.449Z,7.20
2022-11-17T12:02:33.127Z,7.10
2022-11-17T12:05:19.255Z,8.40
2022-11-17T12:07:56.777Z,7.70
2022-11-17T12:10:34.368Z,5.70
2022-11-17T12:13:04.632Z,9.50
2022-11-17T12:15:35.545Z,8.00
2022-11-17T12:18:14.155Z,8.10
2022-11-17T12:20:42.873Z,6.90
2022-11-17T12:23:19.888Z,7.00
2022-11-17T12:25:54.579Z,8.40
2022-11-17T12:28:30.579Z,7.50
2022-11-17T12:31:08.248Z,7.30
2022-11-17T12:33:54.571Z,7.80
2022-11-17T12:36:30.890Z,7.50
2022-11-17T12:39:01.352Z,8.20
2022-11-17T12:41:47.521Z,7.80
2022-11-17T12:44:34.224Z,7.70
2022-11-17T12:50:18.156Z,8.60
2022-11-17T12:52:58.530Z,8.10
2022-11-17T12:55:29.061Z,9.10
2022-11-17T12:58:10.607Z,9.10
2022-11-17T13:00:48.279Z,7.80
2022-11-17T13:03:22.484Z,8.70
2022-11-17T13:06:39.787Z,8.20
2022-11-17T13:09:03.177Z,8.70
2022-11-17T13:11:31.354Z,8.80
2022-11-17T13:14:16.033Z,7.50
2022-11-17T13:16:48.673Z,7.90
2022-11-17T13:19:38.475Z,9.00
2022-11-17T13:22:16.644Z,7.60
2022-11-17T13:24:50.027Z,9.50
2022-11-17T13:27:29.827Z,7.70
2022-11-17T13:30:15.489Z,9.40
2022-11-17T13:32:43.804Z,8.70
2022-11-17T13:35:30.678Z,9.30
2022-11-17T13:38:05.014Z,8.30
2022-11-17T13:40:35.575Z,7.80
2022-11-17T13:43:06.182Z,9.70
2022-11-17T13:45:34.281Z,8.30
2022-11-17T13:48:02.469Z,8.90
2022-11-17T13:50:31.063Z,8.90
2022-11-17T13:53:11.631Z,8.60
2022-11-17T13:55:47.209Z,8.70
2022-11-17T13:58:26.771Z,9.00
2022-11-17T14:00:58.477Z,8.60
2022-11-17T14:03:46.817Z,9.70
2022-11-17T14:06:14.943Z,9.50
2022-11-17T14:09:02.570Z,10.00
2022-11-17T14:11:31.051Z,9.20
2022-11-17T14:14:01.493Z,9.40
2022-11-17T14:16:39.674Z,9.30
2022-11-17T14:19:10.889Z,9.90
2022-11-17T14:21:59.580Z,9.80
2022-11-17T14:24:28.571Z,9.80
2022-11-17T14:26:57.261Z,10.20
2022-11-17T14:29:26.324Z,11.50
2022-11-17T14:31:55.673Z,13.30
2022-11-17T14:34:24.337Z,10.80
2022-11-17T14:36:54.717Z,12.90
2022-11-17T14:39:23.136Z,12.50
2022-11-17T14:41:51.636Z,12.70
2022-11-17T14:44:23.435Z,12.30
2022-11-17T14:46:51.711Z,12.50
2022-11-17T14:49:19.799Z,13.20
2022-11-17T14:51:51.112Z,14.30
2022-11-17T14:54:20.769Z,12.40
2022-11-17T14:56:49.003Z,12.60
2022-11-17T14:59:20.927Z,12.90
2022-11-17T15:01:49.734Z,11.20
2022-11-17T15:07:07.735Z,12.50
2022-11-17T15:09:35.804Z,11.40
2022-11-17T15:12:04.037Z,11.50
2022-11-17T15:14:32.629Z,12.00
2022-11-17T15:17:00.750Z,10.80
2022-11-17T15:19:29.072Z,19.90
2022-11-17T15:21:57.690Z,17.90
2022-11-17T15:24:25.807Z,15.30
2022-11-17T15:26:53.945Z,19.60
2022-11-17T15:29:22.090Z,16.50
2022-11-17T15:31:50.393Z,14.70
2022-11-17T15:34:20.346Z,15.40
2022-11-17T15:36:49.391Z,14.10
2022-11-17T15:39:18.241Z,14.50
2022-11-17T15:41:47.494Z,16.90
2022-11-17T15:44:15.808Z,16.90
2022-11-17T15:46:47.429Z,15.70
2022-11-17T15:49:16.345Z,15.70
2022-11-17T15:51:44.666Z,15.10
2022-11-17T15:54:18.581Z,13.00
2022-11-17T15:56:49.120Z,15.10
2022-11-17T15:59:18.413Z,15.10
2022-11-17T16:01:47.060Z,14.50
2022-11-17T16:04:16.119Z,15.40
2022-11-17T16:06:46.717Z,13.30
2022-11-17T16:09:15.886Z,15.10
2022-11-17T16:11:44.498Z,16.10
2022-11-17T16:14:12.717Z,14.30
2022-11-17T16:16:40.986Z,14.60
2022-11-17T16:19:09.399Z,16.30
2022-11-17T16:21:37.500Z,12.60
2022-11-17T16:24:08.162Z,15.20
2022-11-17T16:26:36.692Z,17.90
2022-11-17T16:29:08.038Z,17.10
2022-11-17T16:31:36.867Z,15.60
2022-11-17T16:34:13.576Z,14.60
2022-11-17T16:36:43.495Z,16.50
2022-11-17T16:39:15.679Z,14.90
2022-11-17T16:41:50.244Z,11.40
2022-11-17T16:44:19.582Z,15.20
2022-11-17T16:46:49.962Z,15.60
2022-11-17T16:49:19.823Z,15.10
2022-11-17T16:51:52.616Z,19.30
2022-11-17T16:54:21.147Z,15.60
2022-11-17T16:56:49.419Z,15.70
2022-11-17T16:59:17.761Z,19.70
2022-11-17T17:01:46.177Z,16.40
2022-11-17T17:04:14.338Z,22.50
2022-11-17T17:06:45.743Z,21.80
2022-11-17T17:09:23.363Z,22.70
2022-11-17T17:11:56.130Z,16.20
2022-11-17T17:14:24.536Z,16.70
2022-11-17T17:16:52.972Z,16.70
2022-11-17T17:19:21.063Z,17.20
2022-11-17T17:21:49.347Z,16.50
2022-11-17T17:24:18.096Z,18.50
2022-11-17T17:26:46.268Z,16.00
2022-11-17T17:29:14.900Z,17.60
2022-11-17T17:31:44.003Z,16.30
2022-11-17T17:34:13.196Z,19.60
2022-11-17T17:36:45.158Z,16.70
2022-11-17T17:39:15.816Z,20.50
2022-11-17T17:41:44.812Z,17.70
2022-11-17T17:44:18.285Z,17.50
2022-11-17T17:46:47.085Z,18.90
2022-11-17T17:49:16.190Z,18.00
2022-11-17T17:51:44.877Z,20.80
2022-11-17T17:54:18.787Z,20.00
2022-11-17T17:56:48.091Z,21.00
2022-11-17T17:59:17.105Z,16.60
2022-11-17T18:01:47.753Z,20.90
2022-11-17T18:04:16.987Z,19.90
2022-11-17T18:06:48.442Z,23.70
2022-11-17T18:09:20.843Z,19.30
2022-11-17T18:11:50.487Z,20.50
2022-11-17T18:14:24.495Z,19.10
2022-11-17T18:16:53.610Z,18.60
2022-11-17T18:19:22.598Z,20.20
2022-11-17T18:21:52.231Z,17.00
2022-11-17T18:24:20.275Z,17.50
2022-11-17T18:26:48.457Z,17.70
2022-11-17T18:29:20.691Z,17.50
2022-11-17T18:31:49.627Z,19.10
2022-11-17T18:34:19.237Z,20.70
2022-11-17T18:36:48.669Z,19.20
2022-11-17T18:39:17.400Z,14.50
2022-11-17T18:41:45.809Z,18.10
2022-11-17T18:44:15.305Z,16.60
2022-11-17T18:46:44.666Z,16.00
2022-11-17T18:49:12.799Z,14.40
2022-11-17T18:51:40.965Z,14.20
2022-11-17T18:54:12.023Z,13.20
2022-11-17T18:56:40.893Z,14.30
2022-11-17T18:59:12.377Z,12.60
2022-11-17T19:01:43.112Z,14.70
2022-11-17T19:04:15.097Z,13.30
2022-11-17T19:06:43.293Z,13.80
2022-11-17T19:09:12.125Z,13.50
2022-11-17T19:11:40.396Z,15.70
2022-11-17T19:14:08.582Z,12.50
2022-11-17T19:16:44.379Z,14.10
2022-11-17T19:19:14.257Z,16.10
2022-11-17T19:21:43.342Z,12.60
2022-11-17T19:24:12.020Z,19.20
2022-11-17T19:26:40.247Z,16.30
2022-11-17T19:29:16.734Z,17.50
2022-11-17T19:31:47.586Z,18.90
2022-11-17T19:34:16.026Z,19.20
2022-11-17T19:36:44.997Z,21.00
2022-11-17T19:39:14.897Z,15.60
2022-11-17T19:41:45.396Z,17.80
2022-11-17T19:44:13.753Z,19.50
2022-11-17T19:46:42.748Z,20.90
2022-11-17T19:49:12.091Z,19.80
2022-11-17T19:51:41.461Z,19.60
2022-11-17T19:54:12.528Z,16.20
2022-11-17T19:56:40.658Z,18.30
2022-11-17T19:59:15.282Z,20.00
2022-11-17T20:01:45.526Z,17.50
2022-11-17T20:04:14.542Z,18.00
2022-11-17T20:06:42.853Z,19.70
2022-11-17T20:09:15.032Z,17.70
2022-11-17T20:11:43.745Z,20.80
2022-11-17T20:14:12.982Z,15.80
2022-11-17T20:16:42.621Z,15.80
2022-11-17T20:19:11.517Z,15.40
2022-11-17T20:21:39.958Z,16.30
2022-11-17T20:24:09.519Z,18.70
2022-11-17T20:26:40.739Z,16.30
2022-11-17T20:29:09.021Z,18.30
2022-11-17T20:31:37.221Z,18.50
2022-11-17T20:34:06.044Z,18.70
2022-11-17T20:36:35.121Z,15.30
2022-11-17T20:39:06.279Z,16.00
2022-11-17T20:41:34.894Z,16.30
2022-11-17T20:44:03.563Z,14.60
2022-11-17T20:46:32.051Z,14.40
2022-11-17T20:49:00.244Z,14.40
2022-11-17T20:51:28.546Z,13.70
2022-11-17T20:53:56.744Z,16.90
2022-11-17T20:56:25.722Z,17.40
2022-11-17T20:58:54.837Z,13.50
2022-11-17T21:01:26.103Z,14.00
2022-11-17T21:03:54.447Z,12.60
2022-11-17T21:06:25.439Z,14.20
2022-11-17T21:08:53.526Z,13.50
2022-11-17T21:11:42.715Z,15.30
2022-11-17T21:14:13.145Z,15.90
2022-11-17T21:16:45.729Z,14.70
2022-11-17T21:19:15.570Z,15.30
2022-11-17T21:21:45.310Z,16.30
2022-11-17T21:24:13.720Z,15.00
2022-11-17T21:26:42.077Z,18.60
2022-11-17T21:29:11.388Z,19.50
2022-11-17T21:31:39.716Z,16.20
2022-11-17T21:34:14.626Z,18.10
2022-11-17T21:36:43.000Z,20.90
2022-11-17T21:39:18.158Z,17.90
2022-11-17T21:41:47.083Z,18.90
2022-11-17T21:44:15.296Z,18.00
2022-11-17T21:46:43.347Z,22.30
2022-11-17T21:49:11.487Z,17.30
2022-11-17T21:51:39.760Z,15.40
2022-11-17T21:54:10.133Z,22.00
2022-11-17T21:56:38.325Z,22.20
2022-11-17T21:59:11.488Z,22.70
2022-11-17T22:01:40.097Z,19.00
2022-11-17T22:04:08.774Z,19.10
2022-11-17T22:06:38.113Z,17.60
2022-11-17T22:09:06.302Z,20.20
2022-11-17T22:11:38.766Z,21.60
2022-11-17T22:14:18.316Z,22.50
2022-11-17T22:16:49.570Z,18.10
2022-11-17T22:19:19.450Z,18.80
2022-11-17T22:21:50.113Z,22.80
2022-11-17T22:24:18.628Z,15.90
2022-11-17T22:26:47.537Z,20.00
2022-11-17T22:29:18.739Z,19.70
2022-11-17T22:31:48.836Z,16.50
2022-11-17T22:34:18.194Z,23.00
2022-11-17T22:36:47.563Z,22.40
2022-11-17T22:39:16.704Z,22.40
2022-11-17T22:41:46.231Z,21.00
2022-11-17T22:44:16.042Z,19.90
2022-11-17T22:46:44.267Z,18.40
2022-11-17T22:49:12.796Z,18.40
2022-11-17T22:51:59.791Z,18.00
2022-11-17T22:54:28.070Z,18.50
2022-11-17T22:56:57.812Z,17.60
2022-11-17T22:59:27.613Z,15.50
2022-11-17T23:01:56.302Z,20.50
2022-11-17T23:04:24.377Z,17.80
2022-11-17T23:06:52.603Z,16.80
2022-11-17T23:09:20.789Z,17.90
2022-11-17T23:11:49.591Z,16.90
2022-11-17T23:14:17.834Z,18.50
2022-11-17T23:16:45.978Z,17.30
2022-11-17T23:19:14.777Z,18.30
2022-11-17T23:21:42.978Z,16.30
2022-11-17T23:24:13.146Z,14.70
2022-11-17T23:26:42.705Z,15.20
2022-11-17T23:29:10.984Z,15.20
2022-11-17T23:31:39.599Z,14.40
2022-11-17T23:34:11.058Z,16.00
2022-11-17T23:36:39.614Z,15.50
2022-11-17T23:39:07.917Z,15.90
2022-11-17T23:41:36.070Z,14.60
2022-11-17T23:44:04.413Z,16.20
2022-11-17T23:46:32.601Z,13.90
2022-11-17T23:49:00.766Z,16.50
2022-11-17T23:51:30.128Z,14.60
2022-11-17T23:54:00.302Z,13.90
2022-11-17T23:56:32.350Z,15.30
2022-11-17T23:59:00.521Z,15.90
